March Air Force Base, California
Current Conditions -  °F | °C
As of 3:52 PM on Monday 20 Oct 2014 (Local Time) from KTRM Reporting Station
Clear Clear  
Wind Chill: 91°   Ceiling: Unl
Heat Index: 91°   Visibility: 10mi
Dew Point: 54°   Wind: 0mph
Humidity: 28%   Direction: NA
Pressure: 29.74"   Gusts: NA
Location:  33.7529°N, 116.0556°W
Report Text: KTRM 202252Z AUTO 00000KT 10SM CLR 33/12 A2974 RMK AO2 SLP072 T03280122 TSNO
Loading
Personal Weather Stations






























Interactive Weather Map
Tropical Storm Tracking
New forecast layout! Learn more

10-Day Weather Forecast

Advertisements
Track Severe Weather on mobile